Time;durP1;ratioP1;P1;durP2;ratioP2;P2;SDS_P1;SDS_P2;PMS_P1;PMS_P2;Temp;Humidity;BMP_temperature;BMP_pressure;BME280_temperature;BME280_humidity;BME280_pressure;Samples;Min_cycle;Max_cycle;Signal;HPM_P1;HPM_P2
2022/02/11 00:04:39;;;;;;;10.60;6.50;;;;;;;;;;5020580;28;20475;-81
2022/02/11 00:09:21;;;;;;;10.07;7.33;;;;;;;;;;5020559;28;20417;-82
2022/02/11 00:11:48;;;;;;;8.20;6.17;;;;;;;;;;5019996;28;20399;-82
2022/02/11 00:14:14;;;;;;;10.83;6.00;;;;;;;;;;5020332;28;20403;-82
2022/02/11 00:16:40;;;;;;;13.30;6.73;;;;;;;;;;5019005;28;20400;-81
2022/02/11 00:19:06;;;;;;;7.57;6.10;;;;;;;;;;5019682;28;20410;-82
2022/02/11 00:21:33;;;;;;;8.30;6.47;;;;;;;;;;5020111;28;20475;-82
2022/02/11 00:24:00;;;;;;;9.60;6.40;;;;;;;;;;5019101;28;20942;-81
2022/02/11 00:26:33;;;;;;;7.10;5.83;;;;;;;;;;5020070;28;20497;-82
2022/02/11 00:34:49;;;;;;;9.00;6.77;;;;;;;;;;4998395;28;20491;-79
2022/02/11 00:37:20;;;;;;;7.30;5.77;;;;;;;;;;5011132;28;20419;-82
2022/02/11 00:40:14;;;;;;;13.27;7.97;;;;;;;;;;5019739;28;20451;-80
2022/02/11 01:04:11;;;;;;;12.20;8.10;;;;;;;;;;5018265;28;20438;-80
2022/02/11 01:06:37;;;;;;;16.33;7.40;;;;;;;;;;5018892;28;20392;-80
2022/02/11 01:09:04;;;;;;;10.00;6.90;;;;;;;;;;5018144;28;20427;-80
2022/02/11 01:11:39;;;;;;;10.30;6.70;;;;;;;;;;5029613;28;20400;-80
2022/02/11 01:14:06;;;;;;;12.10;6.77;;;;;;;;;;5027347;28;20446;-80
2022/02/11 01:16:41;;;;;;;9.90;7.20;;;;;;;;;;5020174;28;20414;-80
2022/02/11 01:19:19;;;;;;;9.50;6.67;;;;;;;;;;5019070;28;20391;-80
2022/02/11 01:22:00;;;;;;;8.87;5.70;;;;;;;;;;5023698;28;20396;-80
2022/02/11 01:30:11;;;;;;;8.47;6.53;;;;;;;;;;5018886;28;20470;-80
2022/02/11 01:35:21;;;;;;;9.90;7.20;;;;;;;;;;5018595;28;20431;-81
2022/02/11 01:46:26;;;;;;;7.80;6.60;;;;;;;;;;5019634;28;20408;-80
2022/02/11 01:51:24;;;;;;;8.60;6.60;;;;;;;;;;5019457;28;20487;-80
2022/02/11 01:54:16;;;;;;;9.10;6.60;;;;;;;;;;5018651;28;20572;-81
2022/02/11 02:20:19;;;;;;;14.47;7.10;;;;;;;;;;5008704;28;20470;-81
2022/02/11 02:25:10;;;;;;;9.17;6.70;;;;;;;;;;5018323;28;20391;-81
2022/02/11 02:33:25;;;;;;;11.17;6.70;;;;;;;;;;5018439;28;20426;-81
2022/02/11 02:57:28;;;;;;;11.17;8.37;;;;;;;;;;5018570;28;20513;-79
2022/02/11 04:56:47;;;;;;;4.70;3.07;;;;;;;;;;5019552;28;20848;-81
2022/02/11 05:01:58;;;;;;;4.70;3.87;;;;;;;;;;5020570;28;20415;-81
2022/02/11 05:04:24;;;;;;;4.40;2.87;;;;;;;;;;5019404;28;20402;-81
2022/02/11 05:06:50;;;;;;;3.93;3.13;;;;;;;;;;5022060;28;20455;-81
2022/02/11 05:09:16;;;;;;;6.57;2.80;;;;;;;;;;5030752;28;20403;-80
2022/02/11 05:11:42;;;;;;;3.70;2.70;;;;;;;;;;5025124;28;20407;-81
2022/02/11 05:14:08;;;;;;;6.10;2.97;;;;;;;;;;5018528;28;20448;-81
2022/02/11 05:16:35;;;;;;;3.53;2.67;;;;;;;;;;5019673;28;20464;-80
2022/02/11 05:19:01;;;;;;;3.50;2.73;;;;;;;;;;5019521;28;20399;-81
2022/02/11 05:21:27;;;;;;;3.57;2.60;;;;;;;;;;5017442;28;20967;-81
2022/02/11 05:23:53;;;;;;;6.87;3.07;;;;;;;;;;5018867;28;20424;-81
2022/02/11 05:26:20;;;;;;;3.53;2.90;;;;;;;;;;5019305;28;20404;-81
2022/02/11 05:28:46;;;;;;;3.90;3.00;;;;;;;;;;5018735;28;20466;-80
2022/02/11 05:31:12;;;;;;;5.80;3.07;;;;;;;;;;5019446;28;20439;-81
2022/02/11 05:33:38;;;;;;;4.67;3.60;;;;;;;;;;5017646;28;20832;-81
2022/02/11 05:36:04;;;;;;;6.03;3.27;;;;;;;;;;5018510;28;20400;-81
2022/02/11 05:38:30;;;;;;;5.67;3.67;;;;;;;;;;5016816;28;20782;-81
2022/02/11 05:40:56;;;;;;;6.27;3.27;;;;;;;;;;5018682;28;20551;-81
2022/02/11 05:43:22;;;;;;;8.40;4.30;;;;;;;;;;5050664;23;20555;-80
2022/02/11 05:45:48;;;;;;;4.97;3.70;;;;;;;;;;5023259;28;20404;-80
2022/02/11 05:48:14;;;;;;;5.30;3.30;;;;;;;;;;5018581;28;20443;-80
2022/02/11 05:50:41;;;;;;;6.53;4.10;;;;;;;;;;5018121;28;20430;-80
2022/02/11 05:53:08;;;;;;;6.03;5.23;;;;;;;;;;5018541;28;20514;-79
2022/02/11 05:55:34;;;;;;;11.00;7.40;;;;;;;;;;5017973;28;20403;-79
2022/02/11 05:58:01;;;;;;;13.40;10.30;;;;;;;;;;5018604;28;20908;-81
2022/02/11 06:00:27;;;;;;;15.47;10.17;;;;;;;;;;5018452;28;20858;-81
2022/02/11 06:02:54;;;;;;;16.67;10.90;;;;;;;;;;5017064;28;20463;-81
2022/02/11 06:05:21;;;;;;;23.30;13.17;;;;;;;;;;5017336;28;20446;-81
2022/02/11 06:07:47;;;;;;;20.70;13.07;;;;;;;;;;5018347;28;20783;-81
2022/02/11 06:10:13;;;;;;;25.50;15.47;;;;;;;;;;5017599;28;20440;-80
2022/02/11 06:12:40;;;;;;;19.40;13.33;;;;;;;;;;5018702;28;20838;-80
2022/02/11 06:15:07;;;;;;;16.93;11.60;;;;;;;;;;5018450;28;20411;-80
2022/02/11 06:17:33;;;;;;;15.80;11.67;;;;;;;;;;5018925;28;20418;-80
2022/02/11 06:20:00;;;;;;;19.90;13.73;;;;;;;;;;5018396;28;20546;-80
2022/02/11 06:22:27;;;;;;;21.43;13.63;;;;;;;;;;5018833;28;20504;-81
2022/02/11 06:24:53;;;;;;;20.33;13.70;;;;;;;;;;5018862;28;20435;-80
2022/02/11 06:27:19;;;;;;;19.67;13.17;;;;;;;;;;5018323;28;20831;-80
2022/02/11 06:29:45;;;;;;;20.93;13.27;;;;;;;;;;5018825;28;20424;-80
2022/02/11 06:32:12;;;;;;;15.30;11.50;;;;;;;;;;5018498;28;20419;-80
2022/02/11 06:34:38;;;;;;;19.13;12.33;;;;;;;;;;5018208;28;20419;-80
2022/02/11 06:37:07;;;;;;;14.43;11.27;;;;;;;;;;5021611;28;20403;-80
2022/02/11 06:39:33;;;;;;;18.23;11.20;;;;;;;;;;5019653;28;20431;-79
2022/02/11 06:42:00;;;;;;;18.40;11.80;;;;;;;;;;5019687;28;20478;-80
2022/02/11 06:44:26;;;;;;;15.33;10.07;;;;;;;;;;5018734;28;20489;-80
2022/02/11 06:46:52;;;;;;;17.43;10.80;;;;;;;;;;5018119;28;20465;-80
2022/02/11 06:49:18;;;;;;;12.97;8.50;;;;;;;;;;5018295;28;20402;-80
2022/02/11 06:51:44;;;;;;;15.70;9.23;;;;;;;;;;5017486;28;20414;-80
2022/02/11 06:54:10;;;;;;;14.30;9.53;;;;;;;;;;5018242;28;20423;-80
2022/02/11 06:56:36;;;;;;;11.27;8.70;;;;;;;;;;5018739;28;20403;-80
2022/02/11 06:59:02;;;;;;;13.13;7.90;;;;;;;;;;5019684;28;20545;-79
2022/02/11 07:01:28;;;;;;;8.10;6.23;;;;;;;;;;5030356;28;20525;-80
2022/02/11 07:03:54;;;;;;;9.63;7.10;;;;;;;;;;5034028;28;20421;-80
2022/02/11 07:06:20;;;;;;;8.90;6.97;;;;;;;;;;5033172;28;20407;-80
2022/02/11 07:08:46;;;;;;;11.37;6.90;;;;;;;;;;5038054;28;20421;-80
2022/02/11 07:11:12;;;;;;;7.60;5.63;;;;;;;;;;5037880;28;20818;-80
2022/02/11 07:13:39;;;;;;;7.47;5.23;;;;;;;;;;5037659;28;20624;-80
2022/02/11 07:16:05;;;;;;;9.60;5.97;;;;;;;;;;5038196;28;20419;-80
2022/02/11 07:18:31;;;;;;;8.30;6.63;;;;;;;;;;5055153;28;20817;-79
2022/02/11 07:20:57;;;;;;;8.03;6.33;;;;;;;;;;5037756;28;20521;-80
2022/02/11 07:23:24;;;;;;;12.40;7.07;;;;;;;;;;5035175;28;20522;-80
2022/02/11 07:25:50;;;;;;;8.07;6.90;;;;;;;;;;5034363;28;20419;-79
2022/02/11 07:28:18;;;;;;;9.50;6.97;;;;;;;;;;5025212;28;20421;-80
2022/02/11 07:30:48;;;;;;;12.03;9.10;;;;;;;;;;5037017;28;20425;-77
2022/02/11 07:33:14;;;;;;;10.73;6.70;;;;;;;;;;5033646;28;20513;-80
2022/02/11 07:35:40;;;;;;;10.07;7.57;;;;;;;;;;5038232;28;20409;-80
2022/02/11 07:38:06;;;;;;;10.70;6.83;;;;;;;;;;5035080;28;20917;-80
2022/02/11 07:40:32;;;;;;;7.40;6.47;;;;;;;;;;5036404;28;20508;-80
2022/02/11 07:42:58;;;;;;;9.83;6.97;;;;;;;;;;5035746;28;20444;-80
2022/02/11 07:45:27;;;;;;;7.40;6.13;;;;;;;;;;5032125;28;20418;-79
2022/02/11 07:47:53;;;;;;;9.23;7.13;;;;;;;;;;5031438;28;20418;-80
2022/02/11 07:50:19;;;;;;;9.47;6.63;;;;;;;;;;5030896;28;20445;-79
2022/02/11 07:52:46;;;;;;;9.60;6.97;;;;;;;;;;5035643;28;20446;-77
2022/02/11 07:55:12;;;;;;;8.80;6.53;;;;;;;;;;5035537;28;20531;-78
2022/02/11 07:57:38;;;;;;;6.37;5.40;;;;;;;;;;5032287;28;20530;-78
2022/02/11 08:00:05;;;;;;;6.73;5.57;;;;;;;;;;5030913;28;20473;-78
2022/02/11 08:02:34;;;;;;;6.00;5.40;;;;;;;;;;5039691;28;20522;-78
2022/02/11 08:05:01;;;;;;;4.20;3.80;;;;;;;;;;5039662;28;20790;-78
2022/02/11 08:07:27;;;;;;;5.10;4.00;;;;;;;;;;5037588;28;20508;-78
2022/02/11 08:09:54;;;;;;;4.70;4.27;;;;;;;;;;5042784;28;20417;-78
2022/02/11 08:12:20;;;;;;;4.70;4.20;;;;;;;;;;5038797;28;20457;-77
2022/02/11 08:14:46;;;;;;;5.20;4.63;;;;;;;;;;5046264;28;20420;-78
2022/02/11 08:17:12;;;;;;;8.50;4.67;;;;;;;;;;5042566;28;20818;-77
2022/02/11 08:19:38;;;;;;;7.10;5.30;;;;;;;;;;5035757;28;20942;-77
2022/02/11 08:22:04;;;;;;;7.47;4.67;;;;;;;;;;5018736;28;20510;-77
2022/02/11 08:24:30;;;;;;;4.73;4.00;;;;;;;;;;5035319;28;20433;-77
2022/02/11 08:26:56;;;;;;;5.80;3.90;;;;;;;;;;5036392;28;20406;-77
2022/02/11 08:29:25;;;;;;;5.90;4.27;;;;;;;;;;5041597;28;20493;-77
2022/02/11 08:31:55;;;;;;;4.40;3.43;;;;;;;;;;5038794;28;20791;-79
2022/02/11 08:34:22;;;;;;;3.70;3.40;;;;;;;;;;5032886;28;20464;-77
2022/02/11 08:36:48;;;;;;;4.57;4.10;;;;;;;;;;5036919;28;20922;-78
2022/02/11 08:39:15;;;;;;;3.80;3.40;;;;;;;;;;5035381;28;20487;-77
2022/02/11 08:41:41;;;;;;;4.57;4.10;;;;;;;;;;5034746;28;22407;-78
2022/02/11 08:44:07;;;;;;;4.83;3.50;;;;;;;;;;5033764;28;20458;-76
2022/02/11 08:46:33;;;;;;;5.10;4.00;;;;;;;;;;5035410;28;20964;-77
2022/02/11 08:48:59;;;;;;;4.07;3.30;;;;;;;;;;5038571;28;20418;-78
2022/02/11 08:51:27;;;;;;;5.93;4.37;;;;;;;;;;5033237;28;20418;-77
2022/02/11 08:53:53;;;;;;;6.13;5.00;;;;;;;;;;5036985;28;20441;-77
2022/02/11 08:56:19;;;;;;;7.37;4.90;;;;;;;;;;5036245;28;20426;-77
2022/02/11 08:58:45;;;;;;;6.03;4.40;;;;;;;;;;5035893;28;20472;-77
2022/02/11 09:01:12;;;;;;;7.03;4.37;;;;;;;;;;5038878;28;20450;-78
2022/02/11 09:03:39;;;;;;;4.10;3.70;;;;;;;;;;5037023;28;20442;-77
2022/02/11 09:06:06;;;;;;;5.07;3.57;;;;;;;;;;5036737;28;20418;-77
2022/02/11 09:08:33;;;;;;;4.50;3.70;;;;;;;;;;5036833;28;20448;-78
2022/02/11 09:11:00;;;;;;;4.60;4.00;;;;;;;;;;5033316;28;20422;-78
2022/02/11 09:13:27;;;;;;;5.37;3.80;;;;;;;;;;5031150;28;20450;-78
2022/02/11 09:15:54;;;;;;;5.47;4.00;;;;;;;;;;5035843;28;20422;-78
2022/02/11 09:18:20;;;;;;;4.47;3.93;;;;;;;;;;5034355;28;20441;-78
2022/02/11 09:20:46;;;;;;;4.80;4.30;;;;;;;;;;5031595;28;20454;-78
2022/02/11 09:23:12;;;;;;;3.47;3.17;;;;;;;;;;5035713;28;20438;-78
2022/02/11 09:25:38;;;;;;;5.77;4.80;;;;;;;;;;5041705;28;20509;-78
2022/02/11 09:28:04;;;;;;;6.53;4.77;;;;;;;;;;5038500;28;20854;-79
2022/02/11 09:30:31;;;;;;;5.30;4.73;;;;;;;;;;5036603;28;20815;-80
2022/02/11 09:32:59;;;;;;;6.10;5.50;;;;;;;;;;5035946;28;20434;-79
2022/02/11 09:35:28;;;;;;;6.37;5.50;;;;;;;;;;5036610;28;20537;-78
2022/02/11 09:37:54;;;;;;;5.40;4.40;;;;;;;;;;5037456;28;20414;-78
2022/02/11 09:40:21;;;;;;;5.43;4.83;;;;;;;;;;5035726;28;20993;-77
2022/02/11 09:42:47;;;;;;;5.73;5.10;;;;;;;;;;5033907;28;20472;-77
2022/02/11 09:45:14;;;;;;;4.57;4.13;;;;;;;;;;5031802;28;20418;-78
2022/02/11 09:47:40;;;;;;;5.67;5.10;;;;;;;;;;5032129;28;20425;-77
2022/02/11 09:50:08;;;;;;;7.00;5.27;;;;;;;;;;5030224;28;20487;-77
2022/02/11 09:52:45;;;;;;;4.67;3.87;;;;;;;;;;5031783;28;20445;-78
2022/02/11 09:57:56;;;;;;;4.07;3.33;;;;;;;;;;5029872;28;20201;-77
2022/02/11 10:00:25;;;;;;;4.43;3.90;;;;;;;;;;5033239;28;20453;-78
2022/02/11 10:02:55;;;;;;;4.27;3.10;;;;;;;;;;5036483;28;20453;-78
2022/02/11 10:05:21;;;;;;;3.53;3.23;;;;;;;;;;5027111;28;20422;-77
2022/02/11 10:07:47;;;;;;;7.73;3.60;;;;;;;;;;5031416;28;20505;-77
2022/02/11 10:10:17;;;;;;;4.30;3.70;;;;;;;;;;5030691;28;20427;-77
2022/02/11 10:12:43;;;;;;;5.30;3.60;;;;;;;;;;5034366;28;20438;-77
2022/02/11 10:15:17;;;;;;;6.03;4.63;;;;;;;;;;5032213;28;20418;-78
2022/02/11 10:17:43;;;;;;;5.57;3.40;;;;;;;;;;5043696;28;21277;-78
2022/02/11 10:20:10;;;;;;;4.00;3.67;;;;;;;;;;5032703;28;20493;-78
2022/02/11 10:22:36;;;;;;;4.83;4.20;;;;;;;;;;5032550;28;20429;-78
2022/02/11 10:25:02;;;;;;;5.80;4.13;;;;;;;;;;5033864;28;20483;-78
2022/02/11 10:27:32;;;;;;;4.60;3.60;;;;;;;;;;5033720;28;20742;-77
2022/02/11 10:30:00;;;;;;;3.30;2.97;;;;;;;;;;5031208;28;20487;-77
2022/02/11 10:32:44;;;;;;;4.70;3.27;;;;;;;;;;5032706;28;20434;-78
2022/02/11 10:35:13;;;;;;;3.60;2.90;;;;;;;;;;5032057;28;20406;-77
2022/02/11 10:37:58;;;;;;;8.07;3.63;;;;;;;;;;5031843;28;20771;-77
2022/02/11 10:40:30;;;;;;;3.83;3.40;;;;;;;;;;5030596;28;20460;-77
2022/02/11 10:42:56;;;;;;;5.07;3.70;;;;;;;;;;5032480;28;20523;-77
2022/02/11 10:45:37;;;;;;;4.77;3.40;;;;;;;;;;5032976;28;20781;-77
2022/02/11 10:48:15;;;;;;;6.37;4.33;;;;;;;;;;5042613;28;20407;-77
2022/02/11 10:50:45;;;;;;;7.80;3.40;;;;;;;;;;5031935;28;20464;-77
2022/02/11 10:53:20;;;;;;;4.90;3.30;;;;;;;;;;5031947;28;20442;-77
2022/02/11 10:55:52;;;;;;;4.47;3.40;;;;;;;;;;5032337;28;20529;-77
2022/02/11 10:58:19;;;;;;;3.70;3.40;;;;;;;;;;5032857;28;20441;-77
2022/02/11 11:00:45;;;;;;;5.40;3.20;;;;;;;;;;5031587;28;20499;-78
2022/02/11 11:03:11;;;;;;;5.00;3.67;;;;;;;;;;5032375;28;20914;-77
2022/02/11 11:05:43;;;;;;;5.73;3.53;;;;;;;;;;5032402;28;20430;-77
2022/02/11 11:08:10;;;;;;;6.33;3.63;;;;;;;;;;5035328;28;20608;-78
2022/02/11 11:10:40;;;;;;;5.60;3.80;;;;;;;;;;5035913;28;20410;-78
2022/02/11 11:13:09;;;;;;;4.70;3.30;;;;;;;;;;5035412;28;20430;-77
2022/02/11 11:15:35;;;;;;;5.40;3.50;;;;;;;;;;5029827;28;20427;-78
2022/02/11 11:18:03;;;;;;;4.90;3.20;;;;;;;;;;5031463;28;20418;-77
2022/02/11 11:20:33;;;;;;;4.30;3.40;;;;;;;;;;5032240;28;20808;-77
2022/02/11 11:23:04;;;;;;;7.23;3.30;;;;;;;;;;5035745;28;20449;-77
2022/02/11 11:25:49;;;;;;;3.90;3.30;;;;;;;;;;5036486;28;20410;-77
2022/02/11 11:28:35;;;;;;;5.93;3.80;;;;;;;;;;5035587;28;20496;-77
2022/02/11 11:31:08;;;;;;;4.63;3.53;;;;;;;;;;5021746;28;20798;-77
2022/02/11 11:33:34;;;;;;;7.20;3.73;;;;;;;;;;5020759;28;20465;-77
2022/02/11 11:36:05;;;;;;;4.67;2.77;;;;;;;;;;5037080;28;20413;-78
2022/02/11 11:38:43;;;;;;;4.73;3.23;;;;;;;;;;5037680;28;20398;-78
2022/02/11 11:41:10;;;;;;;6.37;3.67;;;;;;;;;;5036745;28;20461;-77
2022/02/11 11:43:41;;;;;;;3.60;2.43;;;;;;;;;;5045889;28;20454;-78
2022/02/11 11:46:16;;;;;;;6.20;2.73;;;;;;;;;;5034768;28;20422;-79
2022/02/11 11:48:52;;;;;;;3.90;2.60;;;;;;;;;;5037816;28;20449;-78
2022/02/11 11:51:18;;;;;;;5.87;2.83;;;;;;;;;;5035665;28;20436;-78
2022/02/11 11:53:44;;;;;;;6.20;3.03;;;;;;;;;;5034151;28;20473;-77
2022/02/11 11:56:33;;;;;;;4.33;3.10;;;;;;;;;;5037110;28;20429;-77
2022/02/11 11:59:13;;;;;;;7.20;2.57;;;;;;;;;;5024375;28;20427;-78
2022/02/11 12:01:54;;;;;;;8.30;2.87;;;;;;;;;;5034535;28;20450;-76
2022/02/11 12:04:22;;;;;;;5.00;2.90;;;;;;;;;;5035090;28;20545;-77
2022/02/11 12:06:51;;;;;;;3.23;2.73;;;;;;;;;;5034607;28;20933;-76
2022/02/11 12:09:17;;;;;;;3.90;2.83;;;;;;;;;;5035303;28;20429;-77
2022/02/11 12:11:44;;;;;;;4.80;2.70;;;;;;;;;;5035117;28;20430;-77
2022/02/11 12:14:10;;;;;;;8.33;2.90;;;;;;;;;;5036178;28;20779;-77
2022/02/11 12:16:37;;;;;;;5.33;3.17;;;;;;;;;;5036068;28;20476;-77
2022/02/11 12:19:03;;;;;;;3.63;2.63;;;;;;;;;;5037261;28;20426;-77
2022/02/11 12:21:29;;;;;;;5.33;4.20;;;;;;;;;;5039123;28;20480;-78
2022/02/11 12:29:27;;;;;;;6.40;2.80;;;;;;;;;;5034438;28;20456;-77
2022/02/11 12:31:55;;;;;;;4.47;2.40;;;;;;;;;;5042839;28;20423;-76
2022/02/11 12:34:21;;;;;;;9.70;2.77;;;;;;;;;;5039558;28;20442;-77
2022/02/11 12:36:48;;;;;;;5.23;2.80;;;;;;;;;;5040937;28;20492;-76
2022/02/11 12:39:19;;;;;;;4.97;2.57;;;;;;;;;;5044978;28;20422;-78
2022/02/11 12:41:50;;;;;;;9.20;3.17;;;;;;;;;;5042829;28;20549;-77
2022/02/11 12:44:26;;;;;;;7.80;3.30;;;;;;;;;;5029722;28;20510;-77
2022/02/11 12:46:53;;;;;;;3.50;2.30;;;;;;;;;;5037091;28;20472;-78
2022/02/11 12:49:19;;;;;;;5.37;2.20;;;;;;;;;;5039327;28;20436;-77
2022/02/11 12:51:56;;;;;;;3.53;2.30;;;;;;;;;;5034865;28;20423;-77
2022/02/11 12:54:23;;;;;;;7.60;2.40;;;;;;;;;;5034011;28;20448;-76
2022/02/11 12:56:50;;;;;;;4.00;2.60;;;;;;;;;;5037265;28;20785;-78
2022/02/11 12:59:16;;;;;;;3.30;2.40;;;;;;;;;;5034744;28;20414;-77
2022/02/11 13:01:42;;;;;;;5.00;2.50;;;;;;;;;;5032864;28;20457;-79
2022/02/11 13:04:17;;;;;;;6.67;2.40;;;;;;;;;;5033643;28;20434;-78
2022/02/11 13:06:43;;;;;;;3.10;2.43;;;;;;;;;;5033398;28;20500;-78
2022/02/11 13:09:09;;;;;;;5.20;2.63;;;;;;;;;;5033222;28;20522;-77
2022/02/11 13:11:35;;;;;;;4.97;2.23;;;;;;;;;;5033651;28;20410;-77
2022/02/11 13:14:05;;;;;;;13.53;2.40;;;;;;;;;;5032735;28;20449;-78
2022/02/11 13:16:32;;;;;;;5.83;2.07;;;;;;;;;;5035735;28;20879;-77
2022/02/11 13:18:58;;;;;;;4.70;2.57;;;;;;;;;;5038642;28;20477;-79
2022/02/11 13:21:25;;;;;;;4.67;1.80;;;;;;;;;;5045943;28;20504;-77
2022/02/11 13:23:52;;;;;;;7.73;2.30;;;;;;;;;;5036580;28;20442;-78
2022/02/11 13:26:24;;;;;;;3.63;2.10;;;;;;;;;;5038644;28;20771;-78
2022/02/11 13:28:53;;;;;;;9.37;2.27;;;;;;;;;;5038948;28;20498;-78
2022/02/11 13:31:19;;;;;;;3.57;2.33;;;;;;;;;;5037768;28;20419;-77
2022/02/11 13:33:49;;;;;;;4.27;2.33;;;;;;;;;;5036101;28;20473;-78
2022/02/11 13:36:25;;;;;;;5.53;2.33;;;;;;;;;;5039135;28;20414;-78
2022/02/11 13:38:51;;;;;;;5.43;2.53;;;;;;;;;;5035108;28;20422;-78
2022/02/11 13:41:25;;;;;;;3.60;1.80;;;;;;;;;;5038001;28;20461;-80
2022/02/11 13:43:55;;;;;;;2.93;2.30;;;;;;;;;;5037030;28;20458;-80
2022/02/11 13:46:24;;;;;;;3.50;1.93;;;;;;;;;;5037691;28;20425;-79
2022/02/11 13:48:57;;;;;;;11.73;2.10;;;;;;;;;;5037732;28;20442;-79
2022/02/11 13:51:23;;;;;;;4.37;2.10;;;;;;;;;;5035119;28;20461;-79
2022/02/11 13:53:53;;;;;;;5.63;2.60;;;;;;;;;;5036502;28;21886;-78
2022/02/11 13:56:22;;;;;;;4.30;2.67;;;;;;;;;;5036686;28;20534;-78
2022/02/11 13:59:06;;;;;;;5.20;2.50;;;;;;;;;;5038440;28;20426;-79
2022/02/11 14:01:32;;;;;;;7.43;2.90;;;;;;;;;;5035560;28;20469;-79
2022/02/11 14:04:01;;;;;;;5.43;2.60;;;;;;;;;;5038511;28;20445;-79
2022/02/11 14:06:34;;;;;;;5.97;2.83;;;;;;;;;;5037624;28;20434;-78
2022/02/11 14:09:00;;;;;;;4.90;2.37;;;;;;;;;;5044145;28;20411;-78
2022/02/11 14:11:26;;;;;;;2.70;1.60;;;;;;;;;;5043952;28;20958;-79
2022/02/11 14:13:53;;;;;;;3.43;1.90;;;;;;;;;;5039145;28;20453;-78
2022/02/11 14:16:19;;;;;;;3.30;2.10;;;;;;;;;;5033724;28;20419;-79
2022/02/11 14:18:45;;;;;;;5.93;2.60;;;;;;;;;;5038145;28;20992;-78
2022/02/11 14:21:12;;;;;;;4.90;2.20;;;;;;;;;;5043338;28;20573;-79
2022/02/11 14:23:38;;;;;;;5.27;2.40;;;;;;;;;;5044540;28;20524;-78
2022/02/11 14:26:04;;;;;;;3.17;1.97;;;;;;;;;;5038759;28;22410;-78
2022/02/11 14:28:30;;;;;;;5.00;2.10;;;;;;;;;;5036999;28;20934;-78
2022/02/11 14:30:57;;;;;;;4.83;2.53;;;;;;;;;;5033543;28;20426;-77
2022/02/11 14:33:23;;;;;;;4.03;2.27;;;;;;;;;;5031327;28;20971;-78
2022/02/11 14:35:50;;;;;;;3.83;2.00;;;;;;;;;;5033673;28;20441;-78
2022/02/11 14:38:16;;;;;;;5.00;2.00;;;;;;;;;;5040320;28;20418;-79
2022/02/11 14:43:27;;;;;;;4.03;2.30;;;;;;;;;;5044312;28;20467;-78
2022/02/11 14:45:54;;;;;;;4.60;2.53;;;;;;;;;;5036775;28;20433;-79
2022/02/11 14:48:20;;;;;;;3.83;1.90;;;;;;;;;;5034241;28;20465;-77
2022/02/11 14:50:46;;;;;;;5.93;3.17;;;;;;;;;;5032380;28;20418;-77
2022/02/11 14:53:12;;;;;;;4.33;2.40;;;;;;;;;;5041246;28;20464;-78
2022/02/11 14:55:38;;;;;;;7.67;2.10;;;;;;;;;;5036560;28;20498;-78
2022/02/11 14:58:04;;;;;;;8.07;2.20;;;;;;;;;;5037428;28;20417;-77
2022/02/11 15:00:30;;;;;;;2.53;1.60;;;;;;;;;;5035821;28;20984;-78
2022/02/11 15:02:57;;;;;;;3.43;1.63;;;;;;;;;;5037773;28;20437;-78
2022/02/11 15:05:23;;;;;;;3.57;2.27;;;;;;;;;;5041074;28;20425;-78
2022/02/11 15:07:49;;;;;;;6.63;2.27;;;;;;;;;;5044508;28;20449;-77
2022/02/11 15:10:16;;;;;;;7.43;1.93;;;;;;;;;;5031161;28;20503;-78
2022/02/11 15:12:42;;;;;;;3.23;2.30;;;;;;;;;;5039158;28;21072;-78
2022/02/11 15:15:09;;;;;;;4.77;2.00;;;;;;;;;;5038607;28;20520;-80
2022/02/11 15:17:36;;;;;;;6.30;2.57;;;;;;;;;;5038460;28;20414;-78
2022/02/11 15:20:02;;;;;;;3.20;2.43;;;;;;;;;;5038719;28;20423;-78
2022/02/11 15:22:28;;;;;;;3.30;2.17;;;;;;;;;;5040397;28;20446;-78
2022/02/11 15:24:57;;;;;;;3.50;2.23;;;;;;;;;;5037751;28;20430;-79
2022/02/11 15:27:23;;;;;;;3.40;1.80;;;;;;;;;;5040347;28;20433;-79
2022/02/11 15:29:49;;;;;;;8.53;2.20;;;;;;;;;;5041048;28;20914;-78
2022/02/11 15:32:16;;;;;;;3.60;1.97;;;;;;;;;;5040550;28;20429;-79
2022/02/11 15:34:44;;;;;;;7.60;2.13;;;;;;;;;;5040092;28;20501;-79
2022/02/11 15:37:11;;;;;;;3.27;1.83;;;;;;;;;;5040039;28;20429;-79
2022/02/11 15:39:37;;;;;;;4.40;1.97;;;;;;;;;;5038862;28;20815;-79
2022/02/11 15:42:04;;;;;;;5.50;1.83;;;;;;;;;;5037211;28;20450;-79
2022/02/11 15:44:30;;;;;;;4.17;1.93;;;;;;;;;;5042469;28;20427;-78
2022/02/11 15:46:56;;;;;;;2.60;1.80;;;;;;;;;;5042936;28;20418;-78
2022/02/11 15:49:23;;;;;;;2.77;1.77;;;;;;;;;;5039512;28;20426;-78
2022/02/11 15:51:49;;;;;;;2.40;1.80;;;;;;;;;;5037794;28;20449;-77
2022/02/11 15:54:15;;;;;;;6.40;2.10;;;;;;;;;;5040934;28;20616;-79
2022/02/11 15:56:41;;;;;;;5.20;2.10;;;;;;;;;;5037869;28;20426;-79
2022/02/11 15:59:07;;;;;;;7.20;2.40;;;;;;;;;;5039733;28;20457;-78
2022/02/11 16:01:33;;;;;;;9.47;2.43;;;;;;;;;;5047734;28;20945;-76
2022/02/11 16:04:01;;;;;;;7.03;2.10;;;;;;;;;;5043618;28;20430;-77
2022/02/11 16:06:27;;;;;;;4.10;1.93;;;;;;;;;;5035217;28;20414;-78
2022/02/11 16:08:53;;;;;;;3.40;1.83;;;;;;;;;;5037718;28;20729;-78
2022/02/11 16:11:19;;;;;;;13.47;2.33;;;;;;;;;;5036500;28;20481;-78
2022/02/11 16:13:45;;;;;;;2.90;2.23;;;;;;;;;;5037974;28;20426;-78
2022/02/11 16:16:13;;;;;;;4.77;2.17;;;;;;;;;;5036773;28;20419;-78
2022/02/11 16:18:39;;;;;;;3.97;2.07;;;;;;;;;;5038882;28;20422;-78
2022/02/11 16:21:05;;;;;;;3.27;2.00;;;;;;;;;;5037332;28;20468;-78
2022/02/11 16:23:40;;;;;;;3.90;2.30;;;;;;;;;;5039984;28;21019;-78
2022/02/11 16:26:06;;;;;;;6.40;2.37;;;;;;;;;;5040245;28;20409;-78
2022/02/11 16:28:33;;;;;;;4.03;2.27;;;;;;;;;;5038650;28;20459;-77
2022/02/11 16:31:18;;;;;;;7.40;2.77;;;;;;;;;;5038948;28;20475;-78
2022/02/11 16:33:44;;;;;;;3.90;2.27;;;;;;;;;;5036493;28;20446;-78
2022/02/11 16:36:10;;;;;;;8.53;2.63;;;;;;;;;;5035280;28;20941;-77
2022/02/11 16:38:40;;;;;;;4.00;2.13;;;;;;;;;;5033261;28;20422;-77
2022/02/11 16:41:06;;;;;;;4.40;2.53;;;;;;;;;;5034894;28;20504;-77
2022/02/11 16:43:32;;;;;;;3.83;2.43;;;;;;;;;;5034992;28;20457;-77
2022/02/11 16:45:58;;;;;;;3.37;1.90;;;;;;;;;;5035132;28;20493;-79
2022/02/11 16:48:24;;;;;;;4.03;2.33;;;;;;;;;;5034684;28;20414;-77
2022/02/11 16:50:50;;;;;;;6.23;2.20;;;;;;;;;;5036836;28;20454;-78
2022/02/11 16:53:16;;;;;;;4.67;2.03;;;;;;;;;;5035607;28;20445;-78
2022/02/11 16:55:42;;;;;;;7.20;3.27;;;;;;;;;;5034794;28;20454;-77
2022/02/11 16:58:08;;;;;;;4.47;2.30;;;;;;;;;;5024978;28;20431;-77
2022/02/11 17:00:34;;;;;;;7.17;2.33;;;;;;;;;;5033941;28;20454;-77
2022/02/11 17:03:00;;;;;;;3.13;2.40;;;;;;;;;;5035560;28;20445;-78
2022/02/11 17:05:27;;;;;;;3.43;2.27;;;;;;;;;;5035475;28;20907;-79
2022/02/11 17:07:53;;;;;;;5.03;2.30;;;;;;;;;;5042061;28;20406;-78
2022/02/11 17:10:20;;;;;;;7.23;2.57;;;;;;;;;;5036989;28;20415;-78
2022/02/11 17:12:46;;;;;;;5.33;2.20;;;;;;;;;;5036110;28;20438;-77
2022/02/11 17:15:12;;;;;;;3.70;2.30;;;;;;;;;;5033596;28;20501;-77
2022/02/11 17:17:38;;;;;;;8.53;2.60;;;;;;;;;;5039840;28;20503;-79
2022/02/11 17:20:06;;;;;;;6.93;2.53;;;;;;;;;;5039141;28;20419;-78
2022/02/11 17:22:33;;;;;;;6.30;2.80;;;;;;;;;;5041011;28;20434;-78
2022/02/11 17:24:59;;;;;;;3.60;1.77;;;;;;;;;;5039416;28;20429;-78
2022/02/11 17:27:25;;;;;;;2.80;1.90;;;;;;;;;;5038880;28;20468;-79
2022/02/11 17:29:51;;;;;;;6.30;2.23;;;;;;;;;;5036001;28;20510;-78
2022/02/11 17:32:17;;;;;;;2.63;2.00;;;;;;;;;;5037161;28;20522;-78
2022/02/11 17:34:44;;;;;;;5.43;2.33;;;;;;;;;;5037732;28;20426;-78
2022/02/11 17:37:10;;;;;;;3.63;1.97;;;;;;;;;;5037433;28;20433;-79
2022/02/11 17:39:37;;;;;;;7.00;2.33;;;;;;;;;;5038765;28;20430;-77
2022/02/11 17:42:07;;;;;;;3.70;2.27;;;;;;;;;;5041803;28;20524;-79
2022/02/11 17:44:33;;;;;;;5.70;2.50;;;;;;;;;;5033493;28;20423;-78
2022/02/11 17:46:59;;;;;;;6.00;2.40;;;;;;;;;;5042108;28;20437;-79
2022/02/11 17:49:26;;;;;;;7.50;2.80;;;;;;;;;;5040384;28;20175;-78
2022/02/11 17:51:52;;;;;;;6.50;3.03;;;;;;;;;;5036502;28;20451;-78
2022/02/11 17:54:19;;;;;;;6.63;2.70;;;;;;;;;;5035692;28;20471;-77
2022/02/11 17:56:45;;;;;;;6.20;3.10;;;;;;;;;;5034376;28;20911;-77
2022/02/11 17:59:12;;;;;;;5.67;2.67;;;;;;;;;;5036725;28;20470;-78
2022/02/11 18:01:39;;;;;;;10.60;3.90;;;;;;;;;;5036210;28;20460;-78
2022/02/11 18:04:05;;;;;;;5.47;2.60;;;;;;;;;;5026273;28;20438;-80
2022/02/11 18:06:31;;;;;;;5.27;2.93;;;;;;;;;;5039205;28;20811;-77
2022/02/11 18:08:58;;;;;;;10.03;4.03;;;;;;;;;;5040706;28;20409;-79
2022/02/11 18:11:24;;;;;;;7.00;3.50;;;;;;;;;;5035438;28;20473;-78
2022/02/11 18:13:50;;;;;;;5.40;3.40;;;;;;;;;;5041297;28;20501;-78
2022/02/11 18:16:16;;;;;;;5.90;2.80;;;;;;;;;;5042645;28;20446;-78
2022/02/11 18:18:42;;;;;;;9.50;3.77;;;;;;;;;;5037425;28;20406;-79
2022/02/11 18:21:08;;;;;;;6.57;3.57;;;;;;;;;;5035010;28;20456;-77
2022/02/11 18:23:36;;;;;;;4.43;2.67;;;;;;;;;;5038034;28;20427;-80
2022/02/11 18:26:02;;;;;;;4.57;2.87;;;;;;;;;;5039466;28;20402;-79
2022/02/11 18:28:28;;;;;;;4.57;3.47;;;;;;;;;;5039348;28;20921;-79
2022/02/11 18:30:54;;;;;;;6.23;3.47;;;;;;;;;;5037962;28;20402;-79
2022/02/11 18:33:20;;;;;;;5.97;3.47;;;;;;;;;;5038892;28;20471;-79
2022/02/11 18:35:46;;;;;;;4.53;3.10;;;;;;;;;;5038446;28;20406;-79
2022/02/11 18:38:14;;;;;;;8.90;3.50;;;;;;;;;;5038466;28;20409;-79
2022/02/11 18:40:40;;;;;;;4.20;3.80;;;;;;;;;;5038649;28;20449;-79